Flight Track Log - Related Links

Times and Time Zones

All times are in EDT time to prevent confusion due to time zone crossing. See the DAL4165 flight status page for this flight to view local times or setup timezone preferences in your user account.


Time Position Orientation Groundspeed Altitude Reporting Facility
EDT Latitude Longitude Course Direction KTS MPH feet Rate Location/Type
Tue 04:33:58 PM 33.6500 -84.3833 252° West 160 184 2,400  Level Atlanta TRACON
Tue 04:34:58 PM 33.6667 -84.3167 73° East 247 284 3,600 1,950 Climbing Atlanta TRACON
Tue 04:35:58 PM 33.7333 -84.2833 23° Northeast 275 316 6,300 2,373 Climbing Atlanta TRACON
Tue 04:36:00 PM 33.8001 -84.3656 270° West  Level FlightAware Approximate
Tue 04:37:00 PM 33.8001 -84.5040 270° West  Level FlightAware Approximate
Tue 04:37:55 PM 33.8125 -84.3889 312° West 267 307 10,600  Level Atlanta Center
Tue 04:38:00 PM 33.7933 -84.6410 252° West  Level FlightAware Approximate
Tue 04:38:55 PM 33.8081 -84.5039 267° West 312 359 11,900  Level Atlanta Center
Tue 04:39:00 PM 33.7571 -84.7722 252° West  Level FlightAware Approximate
Tue 04:40:55 PM 33.7692 -84.7536 259° West 381 438 15,300  Level Atlanta Center
Tue 04:42:00 PM 33.7279 -84.8949 251° West  Level FlightAware Approximate
Tue 04:42:55 PM 33.6983 -85.0350 251° West 422 486 18,300  Level Atlanta Center
Tue 04:43:55 PM 33.6639 -85.1744 254° West 432 497 19,800 1,550 Climbing Atlanta Center
Tue 04:44:55 PM 33.6519 -85.3189 264° West 437 503 21,400 1,450 Climbing Atlanta Center
Tue 04:45:55 PM 33.6525 -85.4689 270° West 443 510 22,700 850 Climbing Atlanta Center
Tue 04:46:55 PM 33.6569 -85.6061 272° West 454 522 23,100 700 Climbing Atlanta Center
Tue 04:47:55 PM 33.6569 -85.7608 270° West 465 535 24,100 1,050 Climbing Atlanta Center
Tue 04:48:55 PM 33.6586 -85.9281 271° West 465 535 25,200 950 Climbing Atlanta Center
Tue 04:49:55 PM 33.6644 -86.0856 273° West 465 535 26,000 400 Climbing Atlanta Center
Tue 04:50:55 PM 33.6639 -86.2428 270° West 470 541 26,000  Level Atlanta Center
Tue 04:51:55 PM 33.6653 -86.3975 271° West 475 547 26,000  Level Atlanta Center
Tue 04:52:55 PM 33.6664 -86.5522 271° West 475 547 26,000  Level Atlanta Center
Tue 04:53:55 PM 33.6694 -86.7094 271° West 475 547 26,000  Level Atlanta Center
Tue 04:54:55 PM 33.6700 -86.8644 270° West 475 547 26,000  Level Atlanta Center
Tue 04:56:46 PM 33.7200 -87.1506 282° West 467 537 26,000  Level Memphis Center
Tue 04:57:46 PM 33.7531 -87.3042 285° West 472 543 26,000  Level Memphis Center
Tue 04:58:45 PM 33.7861 -87.4581 285° West 472 543 26,000  Level Memphis Center
Tue 04:59:45 PM 33.8183 -87.5944 286° West 472 543 26,000 200 Level Memphis Center
Tue 05:00:45 PM 33.8511 -87.7508 284° West 477 549 26,400 500 Climbing Memphis Center
Tue 05:01:45 PM 33.8833 -87.9050 284° West 477 549 27,000 300 Climbing Memphis Center
Tue 05:02:45 PM 33.9158 -88.0719 283° West 477 549 27,000  Level Memphis Center
Tue 05:03:46 PM 33.9458 -88.2314 283° West 477 549 27,000  Level Memphis Center
Tue 05:04:45 PM 33.9775 -88.3858 284° West 477 549 27,000  Level Memphis Center
Tue 05:05:45 PM 34.0092 -88.5431 284° West 477 549 27,000  Level Memphis Center
Tue 05:06:46 PM 34.0406 -88.6928 284° West 477 549 27,000  Level Memphis Center
Tue 05:07:45 PM 34.0694 -88.8450 283° West 472 543 27,000  Level Memphis Center
Tue 05:08:45 PM 34.1006 -89.0000 284° West 467 537 27,000  Level Memphis Center
Tue 05:09:46 PM 34.1292 -89.1528 283° West 472 543 27,000  Level Memphis Center
Tue 05:10:45 PM 34.1556 -89.2903 283° West 472 543 27,000  Level Memphis Center
Tue 05:11:46 PM 34.1861 -89.4458 283° West 472 543 27,000  Level Memphis Center
Tue 05:12:45 PM 34.2142 -89.5986 283° West 464 534 27,000  Level Memphis Center
Tue 05:13:45 PM 34.2422 -89.7517 283° West 471 542 27,000 -150 Level Memphis Center
Tue 05:14:45 PM 34.2719 -89.9097 283° West 477 549 26,700 -500 Descending Memphis Center
Tue 05:15:45 PM 34.3039 -90.0831 283° West 477 549 26,000 -350 Descending Memphis Center
Tue 05:16:45 PM 34.3333 -90.2389 283° West 482 555 26,000  Level Memphis Center
Tue 05:17:45 PM 34.3625 -90.3950 283° West 482 555 26,000  Level Memphis Center
Tue 05:18:45 PM 34.3917 -90.5533 283° West 488 562 26,000  Level Memphis Center
Tue 05:19:45 PM 34.4228 -90.7122 283° West 488 562 26,000  Level Memphis Center
Tue 05:20:46 PM 34.4492 -90.8683 282° West 488 562 26,000  Level Memphis Center
Tue 05:21:46 PM 34.4778 -91.0272 282° West 488 562 26,000  Level Memphis Center
Tue 05:22:45 PM 34.5039 -91.1711 282° West 488 562 26,000  Level Memphis Center
Tue 05:23:46 PM 34.5319 -91.3303 282° West 482 555 26,000  Level Memphis Center
Tue 05:24:45 PM 34.5600 -91.4894 282° West 482 555 26,000  Level Memphis Center
Tue 05:25:45 PM 34.5875 -91.6489 282° West 482 555 26,000  Level Memphis Center
Tue 05:26:46 PM 34.6150 -91.8056 282° West 487 560 26,000  Level Memphis Center
Tue 05:27:45 PM 34.6422 -91.9778 281° West 487 560 26,000  Level Memphis Center
Tue 05:28:45 PM 34.6714 -92.1400 282° West 487 560 26,000  Level Memphis Center
Tue 05:29:46 PM 34.6939 -92.3019 280° West 487 560 26,000  Level Memphis Center
Tue 05:30:45 PM 34.7183 -92.4669 280° West 487 560 26,000  Level Memphis Center
Tue 05:31:45 PM 34.7425 -92.6317 280° West 492 566 26,000  Level Memphis Center
Tue 05:32:45 PM 34.7667 -92.7967 280° West 497 572 26,000  Level Memphis Center
Tue 05:33:45 PM 34.7883 -92.9617 279° West 497 572 26,000  Level Memphis Center
Tue 05:34:46 PM 34.8100 -93.1217 279° West 497 572 26,000  Level Memphis Center
Tue 05:35:45 PM 34.8311 -93.2867 279° West 497 572 26,000  Level Memphis Center
Tue 05:36:46 PM 34.8542 -93.4519 280° West 497 572 26,000  Level Memphis Center
Tue 05:37:45 PM 34.8772 -93.6125 280° West 492 566 26,000  Level Memphis Center
Tue 05:38:45 PM 34.8961 -93.7725 278° West 487 560 26,000  Level Memphis Center
Tue 05:39:46 PM 34.9228 -93.9358 281° West 487 560 26,000  Level Memphis Center
Tue 05:40:45 PM 34.9408 -94.0986 278° West 487 560 26,000  Level Memphis Center
Tue 05:41:46 PM 34.9628 -94.2644 279° West 487 560 26,000  Level Memphis Center
Tue 05:42:46 PM 34.9828 -94.4225 279° West 487 560 26,000  Level Memphis Center
Tue 05:43:45 PM 35.0025 -94.5856 278° West 487 560 26,000  Level Memphis Center
Tue 05:44:18 PM 35.0156 -94.6808 280° West 485 558 26,000  Level Fort Worth Center
Tue 05:45:18 PM 35.0358 -94.8397 279° West 518 596 26,000  Level Fort Worth Center
Tue 05:46:18 PM 35.0597 -95.0014 280° West 500 575 26,000  Level Fort Worth Center
Tue 05:47:18 PM 35.0817 -95.1631 279° West 495 570 26,000 -150 Level Fort Worth Center
Tue 05:48:18 PM 35.1031 -95.3200 280° West 490 564 25,700 -650 Descending Fort Worth Center
Tue 05:49:18 PM 35.1225 -95.4844 278° West 484 557 24,700 -850 Descending Fort Worth Center
Tue 05:50:18 PM 35.1436 -95.6439 279° West 484 557 24,000 -350 Descending Fort Worth Center
Tue 05:51:18 PM 35.1603 -95.7986 278° West 479 551 24,000  Level Fort Worth Center
Tue 05:52:18 PM 35.1767 -95.9531 277° West 474 545 24,000  Level Fort Worth Center
Tue 05:53:18 PM 35.1950 -96.1103 278° West 469 540 24,000 -1,050 Level Fort Worth Center
Tue 05:54:18 PM 35.2111 -96.2625 277° West 463 533 21,900 -2,300 Descending Fort Worth Center
Tue 05:55:18 PM 35.2292 -96.4097 279° West 458 527 19,400 -2,672 Descending Fort Worth Center
Tue 05:56:17 PM 35.2489 -96.5569 279° West 428 493 16,600 -2,697 Descending Fort Worth Center
Tue 05:56:47 PM 35.2536 -96.6203 275° West 416 479 15,400 -2,262 Descending Fort Worth Center
Tue 05:57:18 PM 35.2603 -96.6914 277° West 434 499 14,300 -2,164 Descending Fort Worth Center
Tue 05:57:48 PM 35.2689 -96.7550 279° West 398 458 13,200 -2,000 Descending Fort Worth Center
Tue 05:58:18 PM 35.2736 -96.8236 275° West 412 474 12,300 -1,855 Descending Fort Worth Center
Tue 05:58:43 PM 35.2800 -96.8769 278° West 390 449 11,500 -1,300 Descending Fort Worth Center
Tue 05:59:18 PM 35.2886 -96.9533 278° West 401 461 11,000 -545 Descending Fort Worth Center
Tue 05:59:38 PM 35.2931 -96.9964 277° West 384 442 11,000  Level Fort Worth Center
Tue 06:00:18 PM 35.3014 -97.0803 277° West 390 449 11,000  Level Fort Worth Center
Tue 06:00:57 PM 35.3100 -97.1642 277° West 379 436 11,000 -200 Level Fort Worth Center
Tue 06:01:18 PM 35.3164 -97.1947 284° West 377 434 10,800 -1,300 Descending Fort Worth Center
Tue 06:01:57 PM 35.3353 -97.2661 288° West 299 344 9,700 -1,977 Descending Fort Worth Center
Tue 06:02:46 PM 35.3750 -97.3347 305° West 284 327 7,900 -1,926 Descending Fort Worth Center
Tue 06:03:18 PM 35.3894 -97.3628 302° West 314 361 7,100 -2,361 Descending Fort Worth Center
Tue 06:03:47 PM 35.4250 -97.4186 308° West 300 345 5,500 -2,500 Descending Fort Worth Center
Tue 06:04:18 PM 35.4481 -97.4517 311° West 309 356 4,600 -2,333 Descending Fort Worth Center
Tue 06:04:41 PM 35.4625 -97.4900 295° West 282 325 3,400 -3,130 Descending Fort Worth Center

Login

Don't have an account? Register now (free) for customized features, flight alerts, and more!